Time;durP1;ratioP1;P1;durP2;ratioP2;P2;SDS_P1;SDS_P2;PMS_P1;PMS_P2;Temp;Humidity;BMP_temperature;BMP_pressure;BME280_temperature;BME280_humidity;BME280_pressure;Samples;Min_cycle;Max_cycle;Signal;HPM_P1;HPM_P2
2023/04/20 00:00:10;;;;;;;5.60;2.55;;;;;;;;;;6261530;22;20097;-93
2023/04/20 00:02:40;;;;;;;5.00;2.10;;;;;;;;;;6230413;23;20031;-92
2023/04/20 00:05:07;;;;;;;2.90;1.60;;;;;;;;;;6252861;23;20026;-92
2023/04/20 00:07:33;;;;;;;8.10;1.83;;;;;;;;;;6227614;23;20008;-92
2023/04/20 00:10:01;;;;;;;6.35;1.80;;;;;;;;;;6252890;23;20015;-93
2023/04/20 00:12:27;;;;;;;6.00;1.90;;;;;;;;;;6252979;23;20032;-92
2023/04/20 00:14:54;;;;;;;6.00;1.98;;;;;;;;;;6252423;23;20046;-92
2023/04/20 00:17:20;;;;;;;13.43;2.10;;;;;;;;;;6227360;23;20087;-92
2023/04/20 00:19:49;;;;;;;5.40;2.00;;;;;;;;;;6226525;23;20008;-93
2023/04/20 00:22:16;;;;;;;7.85;2.00;;;;;;;;;;6250676;23;20094;-93
2023/04/20 00:24:44;;;;;;;8.32;1.80;;;;;;;;;;6226226;23;20358;-92
2023/04/20 00:27:11;;;;;;;7.72;2.10;;;;;;;;;;6252002;23;20390;-92
2023/04/20 00:29:44;;;;;;;4.57;1.85;;;;;;;;;;6251915;23;20062;-93
2023/04/20 00:32:19;;;;;;;3.33;1.92;;;;;;;;;;6225889;23;20546;-92
2023/04/20 00:34:55;;;;;;;12.57;2.03;;;;;;;;;;6252361;23;20403;-92
2023/04/20 00:37:21;;;;;;;11.00;2.17;;;;;;;;;;6228443;23;20560;-92
2023/04/20 00:39:47;;;;;;;4.50;1.80;;;;;;;;;;6226245;23;20446;-92
2023/04/20 00:42:13;;;;;;;8.20;2.25;;;;;;;;;;6226692;23;20012;-92
2023/04/20 00:44:42;;;;;;;7.40;2.03;;;;;;;;;;6225733;23;20004;-92
2023/04/20 00:47:08;;;;;;;7.90;1.75;;;;;;;;;;6227502;23;20016;-92
2023/04/20 00:49:38;;;;;;;8.10;2.08;;;;;;;;;;6226719;23;20074;-92
2023/04/20 00:52:22;;;;;;;3.92;2.13;;;;;;;;;;6225247;23;20009;-92
2023/04/20 00:54:50;;;;;;;4.97;1.95;;;;;;;;;;6250614;23;20007;-92
2023/04/20 00:57:36;;;;;;;5.75;1.98;;;;;;;;;;6226016;23;20012;-92
2023/04/20 01:00:05;;;;;;;5.35;2.30;;;;;;;;;;6251564;23;20457;-92
2023/04/20 01:02:35;;;;;;;5.47;2.20;;;;;;;;;;6227690;22;20297;-92
2023/04/20 01:05:02;;;;;;;7.05;2.00;;;;;;;;;;6224296;23;20010;-93
2023/04/20 01:07:29;;;;;;;2.83;1.70;;;;;;;;;;6226888;23;20008;-93
2023/04/20 01:09:55;;;;;;;3.55;2.10;;;;;;;;;;6249580;23;20004;-92
2023/04/20 01:12:24;;;;;;;6.88;2.30;;;;;;;;;;6225527;23;20058;-92
2023/04/20 01:14:50;;;;;;;7.95;2.38;;;;;;;;;;6200430;23;20008;-93
2023/04/20 01:17:17;;;;;;;7.65;2.15;;;;;;;;;;6225112;23;20238;-93
2023/04/20 01:19:44;;;;;;;6.70;1.92;;;;;;;;;;6251606;23;20031;-93
2023/04/20 01:22:23;;;;;;;5.93;1.95;;;;;;;;;;6225771;23;20004;-92
2023/04/20 01:24:51;;;;;;;7.82;2.25;;;;;;;;;;6249674;23;20058;-93
2023/04/20 01:27:18;;;;;;;2.30;1.60;;;;;;;;;;6224236;23;20008;-92
2023/04/20 01:29:44;;;;;;;7.82;2.20;;;;;;;;;;6223795;23;20011;-92
2023/04/20 01:32:11;;;;;;;3.55;1.67;;;;;;;;;;6249731;23;19996;-92
2023/04/20 01:34:38;;;;;;;3.47;1.85;;;;;;;;;;6248111;23;20012;-92
2023/04/20 01:37:07;;;;;;;6.95;2.90;;;;;;;;;;6249009;23;20427;-93
2023/04/20 01:39:38;;;;;;;8.93;2.10;;;;;;;;;;6250008;22;20385;-92
2023/04/20 01:42:06;;;;;;;6.00;2.00;;;;;;;;;;6248305;23;20370;-92
2023/04/20 01:44:32;;;;;;;12.32;2.28;;;;;;;;;;6247292;23;20008;-91
2023/04/20 01:46:59;;;;;;;6.65;2.05;;;;;;;;;;6223878;23;20379;-91
2023/04/20 01:49:25;;;;;;;8.18;1.77;;;;;;;;;;6223608;23;20019;-93
2023/04/20 01:51:55;;;;;;;4.95;2.38;;;;;;;;;;6249049;23;20008;-92
2023/04/20 01:54:22;;;;;;;5.97;1.58;;;;;;;;;;6249776;23;20031;-93
2023/04/20 01:56:48;;;;;;;5.38;1.95;;;;;;;;;;6225338;23;20016;-94
2023/04/20 01:59:14;;;;;;;5.00;2.03;;;;;;;;;;6226127;23;20074;-92
2023/04/20 02:01:46;;;;;;;10.93;2.00;;;;;;;;;;6227550;22;20457;-92
2023/04/20 02:04:13;;;;;;;8.32;2.00;;;;;;;;;;6227257;23;20083;-92
2023/04/20 02:06:42;;;;;;;7.05;2.55;;;;;;;;;;6200460;23;20090;-92
2023/04/20 02:09:15;;;;;;;4.63;2.20;;;;;;;;;;6228838;23;20012;-92
2023/04/20 02:11:44;;;;;;;7.25;1.98;;;;;;;;;;6253311;23;20015;-92
2023/04/20 02:14:15;;;;;;;7.25;1.95;;;;;;;;;;6227063;23;20014;-92
2023/04/20 02:16:45;;;;;;;13.88;2.20;;;;;;;;;;6227780;23;20069;-92
2023/04/20 02:19:11;;;;;;;4.70;2.28;;;;;;;;;;6252443;22;20424;-93
2023/04/20 02:21:38;;;;;;;3.88;1.95;;;;;;;;;;6226721;23;20012;-92
2023/04/20 02:24:17;;;;;;;9.70;2.88;;;;;;;;;;6252089;23;20011;-93
2023/04/20 02:26:43;;;;;;;13.25;2.88;;;;;;;;;;6228465;23;20008;-93
2023/04/20 02:29:09;;;;;;;6.00;1.98;;;;;;;;;;6250622;23;20012;-92
2023/04/20 02:31:43;;;;;;;6.55;3.45;;;;;;;;;;6226971;23;20008;-93
2023/04/20 02:34:15;;;;;;;9.18;2.22;;;;;;;;;;6253611;22;20015;-93
2023/04/20 02:36:41;;;;;;;4.75;1.92;;;;;;;;;;6251703;23;20043;-93
2023/04/20 02:39:20;;;;;;;5.78;2.22;;;;;;;;;;6250715;23;20109;-93
2023/04/20 02:41:46;;;;;;;7.05;2.45;;;;;;;;;;6253663;22;20000;-93
2023/04/20 02:44:13;;;;;;;8.10;2.22;;;;;;;;;;6225271;23;20005;-92
2023/04/20 02:46:40;;;;;;;6.45;2.25;;;;;;;;;;6201317;23;20015;-93
2023/04/20 02:49:06;;;;;;;3.95;2.17;;;;;;;;;;6227479;23;20015;-93
2023/04/20 02:51:33;;;;;;;4.45;2.15;;;;;;;;;;6250910;23;20206;-93
2023/04/20 02:53:59;;;;;;;5.13;2.17;;;;;;;;;;6252374;23;20009;-93
2023/04/20 02:56:25;;;;;;;10.85;2.40;;;;;;;;;;6226782;23;20081;-93
2023/04/20 02:58:52;;;;;;;4.95;2.03;;;;;;;;;;6250839;23;20027;-93
2023/04/20 03:01:18;;;;;;;3.88;1.88;;;;;;;;;;6207567;22;20486;-93
2023/04/20 03:03:45;;;;;;;10.05;2.28;;;;;;;;;;6226495;23;20068;-93
2023/04/20 03:06:11;;;;;;;5.97;2.60;;;;;;;;;;6251620;23;20015;-94
2023/04/20 03:08:37;;;;;;;7.43;2.28;;;;;;;;;;6226196;23;20015;-93
2023/04/20 03:11:03;;;;;;;5.97;2.00;;;;;;;;;;6222337;23;20035;-93
2023/04/20 03:13:29;;;;;;;8.43;2.47;;;;;;;;;;6216759;23;20016;-92
2023/04/20 03:15:55;;;;;;;5.80;2.35;;;;;;;;;;6218071;23;20351;-93
2023/04/20 03:18:21;;;;;;;10.15;2.42;;;;;;;;;;6246467;23;20008;-92
2023/04/20 03:20:57;;;;;;;8.70;2.13;;;;;;;;;;6222091;23;20016;-93
2023/04/20 03:23:25;;;;;;;5.53;2.40;;;;;;;;;;6223375;23;20014;-93
2023/04/20 03:25:52;;;;;;;13.75;2.83;;;;;;;;;;6226912;23;20013;-93
2023/04/20 03:28:19;;;;;;;4.25;2.08;;;;;;;;;;6251805;23;20105;-93
2023/04/20 03:30:46;;;;;;;9.00;2.42;;;;;;;;;;6250904;23;20008;-93
2023/04/20 03:33:13;;;;;;;6.03;1.90;;;;;;;;;;6251092;23;20011;-93
2023/04/20 03:35:48;;;;;;;11.43;2.30;;;;;;;;;;6225950;23;20047;-93
2023/04/20 03:38:14;;;;;;;11.07;5.22;;;;;;;;;;6252559;23;20115;-93
2023/04/20 03:40:43;;;;;;;9.70;2.42;;;;;;;;;;6228821;23;20494;-93
2023/04/20 03:43:18;;;;;;;9.60;2.47;;;;;;;;;;6227676;23;20004;-92
2023/04/20 03:45:45;;;;;;;6.30;1.65;;;;;;;;;;6253331;23;20064;-92
2023/04/20 03:48:11;;;;;;;4.45;1.98;;;;;;;;;;6253484;23;20024;-92
2023/04/20 03:50:38;;;;;;;6.95;2.20;;;;;;;;;;6229008;23;20039;-92
2023/04/20 03:53:04;;;;;;;7.75;2.20;;;;;;;;;;6253812;23;20019;-91
2023/04/20 03:55:37;;;;;;;4.90;1.85;;;;;;;;;;6228466;23;20004;-92
2023/04/20 03:58:05;;;;;;;4.55;1.85;;;;;;;;;;6252992;23;20347;-93
2023/04/20 04:00:32;;;;;;;9.18;1.95;;;;;;;;;;6253971;23;20000;-92
2023/04/20 04:02:58;;;;;;;5.50;2.35;;;;;;;;;;6253145;22;20020;-92
2023/04/20 04:05:37;;;;;;;7.57;2.15;;;;;;;;;;6252873;23;20042;-92
2023/04/20 04:08:06;;;;;;;2.92;2.08;;;;;;;;;;6224935;23;20012;-92
2023/04/20 04:10:39;;;;;;;6.15;2.45;;;;;;;;;;6228033;23;20023;-91
2023/04/20 04:13:05;;;;;;;8.05;2.42;;;;;;;;;;6229577;23;20012;-93
2023/04/20 04:15:54;;;;;;;7.50;2.00;;;;;;;;;;6203094;23;20032;-92
2023/04/20 04:18:21;;;;;;;10.88;1.77;;;;;;;;;;6253837;23;20031;-92
2023/04/20 04:20:47;;;;;;;5.72;2.03;;;;;;;;;;6227953;23;20018;-93
2023/04/20 04:23:14;;;;;;;7.63;2.47;;;;;;;;;;6227266;23;20012;-92
2023/04/20 04:25:44;;;;;;;7.60;2.38;;;;;;;;;;6253140;23;20004;-93
2023/04/20 04:28:11;;;;;;;5.28;2.10;;;;;;;;;;6228527;23;20346;-92
2023/04/20 04:30:37;;;;;;;8.30;1.83;;;;;;;;;;6227908;23;20438;-91
2023/04/20 04:33:13;;;;;;;2.83;1.73;;;;;;;;;;6228139;23;20072;-93
2023/04/20 04:35:40;;;;;;;3.10;1.83;;;;;;;;;;6229173;23;20012;-93
2023/04/20 04:38:06;;;;;;;6.35;1.90;;;;;;;;;;6226922;23;20009;-93
2023/04/20 04:40:35;;;;;;;7.43;1.50;;;;;;;;;;6253620;23;20011;-93
2023/04/20 04:43:02;;;;;;;8.82;1.95;;;;;;;;;;6229895;23;20460;-93
2023/04/20 04:45:29;;;;;;;5.13;1.80;;;;;;;;;;6227187;23;20012;-93
2023/04/20 04:47:55;;;;;;;16.23;2.40;;;;;;;;;;6252957;23;20004;-94
2023/04/20 04:50:23;;;;;;;7.18;2.33;;;;;;;;;;6251636;23;20046;-94
2023/04/20 04:52:52;;;;;;;3.17;2.05;;;;;;;;;;6227965;23;20012;-93
2023/04/20 04:55:18;;;;;;;6.53;2.08;;;;;;;;;;6227611;23;20112;-93
2023/04/20 04:57:47;;;;;;;9.02;2.35;;;;;;;;;;6232548;23;20011;-93
2023/04/20 05:00:14;;;;;;;6.63;2.00;;;;;;;;;;6231709;23;20030;-92
2023/04/20 05:02:47;;;;;;;4.70;2.08;;;;;;;;;;6254910;22;20016;-93
2023/04/20 05:05:13;;;;;;;12.85;1.83;;;;;;;;;;6227362;23;20016;-93
2023/04/20 05:07:40;;;;;;;10.80;2.17;;;;;;;;;;6227374;23;20431;-93
2023/04/20 05:10:07;;;;;;;7.65;2.00;;;;;;;;;;6252334;23;20011;-93
2023/04/20 05:12:34;;;;;;;11.40;2.05;;;;;;;;;;6253454;23;20008;-92
2023/04/20 05:15:13;;;;;;;3.63;1.90;;;;;;;;;;6253029;23;20061;-94
2023/04/20 05:17:39;;;;;;;5.93;2.33;;;;;;;;;;6227805;23;20072;-93
2023/04/20 05:20:15;;;;;;;4.72;2.35;;;;;;;;;;6230431;23;20063;-93
2023/04/20 05:22:41;;;;;;;6.13;1.80;;;;;;;;;;6253711;23;20008;-92
2023/04/20 05:25:08;;;;;;;7.03;2.20;;;;;;;;;;6255219;23;20004;-95
2023/04/20 05:28:04;;;;;;;4.22;2.00;;;;;;;;;;6253947;23;20027;-93
2023/04/20 05:30:30;;;;;;;7.28;2.17;;;;;;;;;;6245531;23;20024;-93
2023/04/20 05:32:56;;;;;;;6.22;2.15;;;;;;;;;;6229655;23;20095;-92
2023/04/20 05:35:23;;;;;;;6.13;2.67;;;;;;;;;;6259619;23;20015;-93
2023/04/20 05:38:01;;;;;;;4.78;2.17;;;;;;;;;;6233505;23;20000;-93
2023/04/20 05:40:28;;;;;;;4.40;1.98;;;;;;;;;;6256950;22;20656;-92
2023/04/20 05:42:54;;;;;;;10.02;2.50;;;;;;;;;;6256041;23;20517;-93
2023/04/20 05:45:20;;;;;;;11.93;1.88;;;;;;;;;;6228650;23;20489;-92
2023/04/20 05:47:54;;;;;;;3.55;2.28;;;;;;;;;;6229349;23;20023;-93
2023/04/20 05:50:20;;;;;;;10.43;2.33;;;;;;;;;;6254464;23;20007;-92
2023/04/20 05:52:46;;;;;;;4.38;2.42;;;;;;;;;;6228197;23;20012;-92
2023/04/20 05:55:13;;;;;;;6.72;3.20;;;;;;;;;;6253312;23;20453;-92
2023/04/20 05:57:41;;;;;;;7.63;2.25;;;;;;;;;;6227468;23;20004;-92
2023/04/20 06:00:15;;;;;;;7.53;2.75;;;;;;;;;;6228009;23;20011;-92
2023/04/20 06:02:55;;;;;;;6.28;2.33;;;;;;;;;;6253080;22;20092;-92
2023/04/20 06:05:22;;;;;;;4.70;2.40;;;;;;;;;;6229625;23;20366;-92
2023/04/20 06:07:48;;;;;;;9.50;2.85;;;;;;;;;;6226709;23;20670;-91
2023/04/20 06:10:14;;;;;;;2.55;1.70;;;;;;;;;;6229832;23;20018;-94
2023/04/20 06:12:48;;;;;;;8.52;2.10;;;;;;;;;;6254413;23;20011;-92
2023/04/20 06:15:17;;;;;;;3.53;2.25;;;;;;;;;;6228503;23;20044;-93
2023/04/20 06:17:43;;;;;;;5.43;2.63;;;;;;;;;;6227657;23;20103;-93
2023/04/20 06:20:10;;;;;;;4.30;2.30;;;;;;;;;;6252888;23;20000;-93
2023/04/20 06:22:47;;;;;;;5.18;2.25;;;;;;;;;;6227085;23;20100;-93
2023/04/20 06:25:23;;;;;;;6.75;2.10;;;;;;;;;;6253542;23;20075;-93
2023/04/20 06:27:49;;;;;;;6.18;2.20;;;;;;;;;;6227562;23;20004;-94
2023/04/20 06:30:17;;;;;;;5.78;2.60;;;;;;;;;;6226772;23;20004;-93
2023/04/20 06:32:43;;;;;;;9.18;3.10;;;;;;;;;;6253085;23;20328;-93
2023/04/20 06:35:11;;;;;;;5.40;2.70;;;;;;;;;;6228723;23;20008;-94
2023/04/20 06:37:37;;;;;;;8.30;2.67;;;;;;;;;;6227599;23;20058;-94
2023/04/20 06:40:06;;;;;;;11.82;2.28;;;;;;;;;;6227455;23;20024;-93
2023/04/20 06:42:33;;;;;;;5.30;2.58;;;;;;;;;;6230549;23;20027;-93
2023/04/20 06:44:59;;;;;;;10.60;2.60;;;;;;;;;;6227410;23;20016;-93
2023/04/20 06:47:32;;;;;;;6.65;2.35;;;;;;;;;;6253440;23;19992;-93
2023/04/20 06:49:59;;;;;;;7.45;2.63;;;;;;;;;;6255062;22;20473;-93
2023/04/20 06:52:25;;;;;;;13.55;2.85;;;;;;;;;;6253263;23;20389;-93
2023/04/20 06:54:52;;;;;;;8.13;3.00;;;;;;;;;;6253444;23;20015;-93
2023/04/20 06:57:18;;;;;;;5.93;3.22;;;;;;;;;;6252454;23;20010;-93
2023/04/20 06:59:57;;;;;;;4.35;2.70;;;;;;;;;;6253493;23;20000;-94
2023/04/20 07:02:24;;;;;;;11.05;2.78;;;;;;;;;;6257982;22;20011;-93
2023/04/20 07:05:01;;;;;;;8.68;2.30;;;;;;;;;;6231635;22;20042;-93
2023/04/20 07:08:14;;;;;;;10.93;2.80;;;;;;;;;;6257885;22;20438;-93
2023/04/20 07:10:41;;;;;;;6.32;2.83;;;;;;;;;;6241004;22;20004;-95
2023/04/20 07:13:08;;;;;;;9.55;2.85;;;;;;;;;;6231716;22;20011;-95
2023/04/20 07:15:36;;;;;;;12.30;2.72;;;;;;;;;;6257701;22;20090;-94
2023/04/20 07:18:02;;;;;;;9.20;2.97;;;;;;;;;;6257797;22;20039;-95
2023/04/20 07:20:28;;;;;;;6.68;2.88;;;;;;;;;;6231272;22;20017;-95
2023/04/20 07:22:54;;;;;;;6.43;2.85;;;;;;;;;;6226309;22;20350;-94
2023/04/20 07:25:21;;;;;;;5.55;2.47;;;;;;;;;;6227534;22;20019;-94
2023/04/20 07:27:48;;;;;;;5.47;3.13;;;;;;;;;;6226140;22;20016;-94
2023/04/20 07:30:17;;;;;;;10.60;3.05;;;;;;;;;;6230789;22;20073;-93
2023/04/20 07:32:44;;;;;;;6.70;3.08;;;;;;;;;;6232363;22;20012;-94
2023/04/20 07:35:13;;;;;;;5.63;2.83;;;;;;;;;;6233547;22;20003;-94
2023/04/20 07:37:39;;;;;;;5.65;3.13;;;;;;;;;;6257722;22;20087;-94
2023/04/20 07:40:09;;;;;;;6.60;2.72;;;;;;;;;;6232348;22;20018;-94
2023/04/20 07:42:38;;;;;;;9.02;2.90;;;;;;;;;;6232732;22;20023;-96
2023/04/20 07:45:05;;;;;;;9.38;3.20;;;;;;;;;;6257767;22;20308;-94
2023/04/20 07:47:33;;;;;;;6.90;3.17;;;;;;;;;;6232082;22;20008;-94
2023/04/20 07:50:00;;;;;;;5.75;3.00;;;;;;;;;;6254510;22;20004;-94
2023/04/20 07:52:27;;;;;;;7.80;3.20;;;;;;;;;;6257742;22;20011;-94
2023/04/20 07:54:56;;;;;;;10.05;3.35;;;;;;;;;;6257837;22;20536;-94
2023/04/20 07:57:29;;;;;;;10.88;3.53;;;;;;;;;;6257137;22;20426;-96
2023/04/20 08:02:42;;;;;;;;;;;;;;;;;;6239208;22;20386;-95
2023/04/20 08:05:17;;;;;;;6.22;2.90;;;;;;;;;;6252789;23;20063;-95
2023/04/20 08:07:46;;;;;;;9.98;3.20;;;;;;;;;;6229517;23;20039;-96
2023/04/20 08:10:12;;;;;;;5.90;2.53;;;;;;;;;;6229124;23;20004;-95
2023/04/20 08:12:47;;;;;;;13.10;3.55;;;;;;;;;;6253409;23;20091;-96
2023/04/20 08:15:14;;;;;;;10.03;3.63;;;;;;;;;;6251257;23;20070;-94
2023/04/20 08:17:40;;;;;;;12.82;3.00;;;;;;;;;;6253104;23;20235;-95
2023/04/20 08:20:07;;;;;;;6.68;3.25;;;;;;;;;;6252161;23;20004;-95
2023/04/20 08:22:33;;;;;;;12.45;3.33;;;;;;;;;;6228125;23;20448;-94
2023/04/20 08:24:59;;;;;;;8.52;3.20;;;;;;;;;;6252044;23;20426;-95
2023/04/20 08:27:29;;;;;;;6.03;2.70;;;;;;;;;;6252691;23;20004;-96
2023/04/20 08:29:55;;;;;;;6.15;3.58;;;;;;;;;;6252050;23;20053;-96
2023/04/20 08:32:22;;;;;;;5.15;2.53;;;;;;;;;;6252538;23;20019;-96
2023/04/20 08:34:50;;;;;;;11.38;3.33;;;;;;;;;;6252233;23;20472;-96
2023/04/20 08:37:16;;;;;;;13.00;3.38;;;;;;;;;;6228644;23;20016;-95
2023/04/20 08:39:42;;;;;;;10.93;3.83;;;;;;;;;;6228041;23;20016;-95
2023/04/20 08:42:11;;;;;;;7.20;3.35;;;;;;;;;;6229337;23;20000;-94
2023/04/20 08:44:37;;;;;;;11.30;3.85;;;;;;;;;;6224821;23;20020;-94
2023/04/20 08:47:10;;;;;;;8.70;3.35;;;;;;;;;;6254238;23;20032;-95
2023/04/20 08:49:40;;;;;;;10.93;4.03;;;;;;;;;;6226954;23;20019;-95
2023/04/20 08:52:09;;;;;;;6.75;4.03;;;;;;;;;;6253062;23;20007;-94
2023/04/20 08:54:39;;;;;;;12.82;4.30;;;;;;;;;;6251578;23;20015;-94
2023/04/20 08:57:06;;;;;;;8.05;4.38;;;;;;;;;;6250850;23;20004;-94
2023/04/20 08:59:33;;;;;;;9.60;3.58;;;;;;;;;;6227108;23;20008;-94
2023/04/20 09:02:12;;;;;;;12.77;3.85;;;;;;;;;;6251721;22;20009;-94
2023/04/20 09:04:39;;;;;;;7.47;3.75;;;;;;;;;;6225561;23;20087;-94
2023/04/20 09:07:06;;;;;;;6.70;3.13;;;;;;;;;;6225757;23;20026;-95
2023/04/20 09:09:33;;;;;;;8.10;3.75;;;;;;;;;;6252030;23;20015;-95
2023/04/20 09:12:17;;;;;;;9.52;3.65;;;;;;;;;;6226728;23;20043;-95
2023/04/20 09:14:46;;;;;;;9.98;3.53;;;;;;;;;;6252153;23;20008;-95
2023/04/20 09:17:13;;;;;;;7.68;4.00;;;;;;;;;;6251186;23;20012;-93
2023/04/20 09:19:46;;;;;;;7.57;3.60;;;;;;;;;;6251005;23;20004;-94
2023/04/20 09:22:12;;;;;;;7.78;4.05;;;;;;;;;;6251591;23;20024;-95
2023/04/20 09:24:49;;;;;;;10.02;3.45;;;;;;;;;;6251987;23;20005;-94
2023/04/20 09:27:16;;;;;;;8.50;3.97;;;;;;;;;;6252762;23;20004;-95
2023/04/20 09:30:02;;;;;;;9.80;3.60;;;;;;;;;;6252180;23;20012;-94
2023/04/20 09:32:31;;;;;;;7.43;3.60;;;;;;;;;;6253895;22;20015;-95
2023/04/20 09:35:10;;;;;;;14.23;4.03;;;;;;;;;;6228613;23;20469;-95
2023/04/20 09:37:46;;;;;;;8.55;3.97;;;;;;;;;;6227837;23;20732;-94
2023/04/20 09:40:13;;;;;;;10.45;4.07;;;;;;;;;;6253419;23;20011;-94
2023/04/20 09:42:53;;;;;;;7.28;3.80;;;;;;;;;;6228048;23;20091;-95
2023/04/20 09:45:23;;;;;;;7.97;4.10;;;;;;;;;;6254600;22;20004;-95
2023/04/20 09:47:49;;;;;;;11.60;3.58;;;;;;;;;;6228515;23;20103;-94
2023/04/20 09:50:16;;;;;;;7.90;3.30;;;;;;;;;;6230051;23;20015;-94
2023/04/20 09:52:43;;;;;;;13.85;3.53;;;;;;;;;;6252636;23;20342;-95
2023/04/20 09:55:12;;;;;;;7.82;3.28;;;;;;;;;;6228236;23;20008;-93
2023/04/20 09:57:58;;;;;;;9.18;3.55;;;;;;;;;;6252115;23;20030;-94
2023/04/20 10:00:25;;;;;;;7.38;3.03;;;;;;;;;;6251181;23;20064;-94
2023/04/20 10:02:59;;;;;;;9.07;3.90;;;;;;;;;;6256277;22;20435;-94
2023/04/20 10:05:33;;;;;;;6.63;3.40;;;;;;;;;;6224285;23;20066;-94
2023/04/20 10:08:10;;;;;;;7.90;3.65;;;;;;;;;;6251658;23;20067;-94
2023/04/20 10:10:47;;;;;;;6.18;3.65;;;;;;;;;;6229555;23;20008;-94
2023/04/20 10:13:18;;;;;;;8.10;3.78;;;;;;;;;;6252223;23;20015;-94
2023/04/20 10:15:44;;;;;;;10.05;3.95;;;;;;;;;;6247214;23;20035;-94
2023/04/20 10:19:06;;;;;;;6.80;3.38;;;;;;;;;;6224674;23;20069;-93
2023/04/20 10:21:13;;;;;;;7.85;3.85;;;;;;;;;;6244104;23;20019;-93
2023/04/20 10:23:57;;;;;;;8.63;3.55;;;;;;;;;;6228351;23;20016;-93
2023/04/20 10:26:24;;;;;;;6.40;3.10;;;;;;;;;;6223645;23;20012;-93
2023/04/20 10:28:51;;;;;;;6.72;3.72;;;;;;;;;;6244774;23;20251;-93
2023/04/20 10:31:19;;;;;;;8.70;3.55;;;;;;;;;;6245221;22;20046;-93
2023/04/20 10:33:51;;;;;;;6.68;3.50;;;;;;;;;;6219743;23;20012;-93
2023/04/20 10:36:35;;;;;;;8.25;3.40;;;;;;;;;;6220788;23;20008;-94
2023/04/20 10:39:13;;;;;;;7.00;3.45;;;;;;;;;;6222016;23;20034;-94
2023/04/20 10:41:51;;;;;;;9.40;3.88;;;;;;;;;;6245989;23;20007;-94
2023/04/20 10:44:17;;;;;;;7.63;3.67;;;;;;;;;;6246471;23;20049;-94
2023/04/20 10:46:47;;;;;;;6.00;3.03;;;;;;;;;;6220581;23;20008;-94
2023/04/20 10:49:35;;;;;;;17.23;5.20;;;;;;;;;;6248833;23;20059;-94
2023/04/20 10:52:01;;;;;;;9.63;4.72;;;;;;;;;;6250779;23;20449;-93
2023/04/20 10:54:36;;;;;;;11.52;4.43;;;;;;;;;;6224912;23;20008;-93
2023/04/20 10:57:06;;;;;;;23.17;4.55;;;;;;;;;;6248890;23;20008;-93
2023/04/20 10:59:40;;;;;;;15.02;4.30;;;;;;;;;;6225346;23;20012;-93
2023/04/20 11:02:29;;;;;;;6.72;3.78;;;;;;;;;;6228827;23;20068;-95
2023/04/20 11:04:59;;;;;;;10.48;4.38;;;;;;;;;;6251067;23;20020;-95
2023/04/20 11:07:26;;;;;;;14.43;4.40;;;;;;;;;;6221456;23;20121;-94
2023/04/20 11:09:56;;;;;;;6.00;3.67;;;;;;;;;;6222340;23;20016;-93
2023/04/20 11:12:32;;;;;;;11.90;4.78;;;;;;;;;;6253432;23;20083;-95
2023/04/20 11:15:01;;;;;;;10.27;4.43;;;;;;;;;;6236253;22;20001;-94
2023/04/20 11:17:35;;;;;;;11.90;5.13;;;;;;;;;;6227348;23;20074;-94
2023/04/20 11:20:16;;;;;;;11.13;4.28;;;;;;;;;;6225614;23;20008;-93
2023/04/20 11:22:44;;;;;;;8.85;4.57;;;;;;;;;;6223690;23;20015;-93
2023/04/20 11:25:19;;;;;;;6.55;4.43;;;;;;;;;;6247679;23;20000;-94
2023/04/20 11:27:46;;;;;;;10.20;4.65;;;;;;;;;;6226965;23;20123;-94
2023/04/20 11:30:15;;;;;;;9.18;4.20;;;;;;;;;;6248606;23;20004;-94
2023/04/20 11:32:41;;;;;;;9.00;5.18;;;;;;;;;;6220315;23;20015;-95
2023/04/20 11:35:09;;;;;;;7.38;4.18;;;;;;;;;;6247825;23;20316;-95
2023/04/20 11:37:52;;;;;;;9.60;4.85;;;;;;;;;;6223025;23;20046;-96
2023/04/20 11:40:19;;;;;;;7.53;4.43;;;;;;;;;;6224804;23;20034;-95
2023/04/20 11:42:45;;;;;;;11.25;4.47;;;;;;;;;;6229320;23;20015;-95
2023/04/20 11:45:11;;;;;;;9.10;4.53;;;;;;;;;;6227002;23;20067;-94
2023/04/20 11:48:12;;;;;;;9.32;5.10;;;;;;;;;;6227082;23;20007;-94
2023/04/20 11:50:39;;;;;;;8.50;4.55;;;;;;;;;;6240478;23;20012;-95
2023/04/20 11:53:09;;;;;;;14.88;6.25;;;;;;;;;;6227597;23;20012;-94
2023/04/20 11:55:38;;;;;;;9.02;5.20;;;;;;;;;;6197815;23;20108;-95
2023/04/20 11:58:04;;;;;;;8.68;4.68;;;;;;;;;;6200629;23;20008;-95
2023/04/20 12:00:33;;;;;;;12.57;6.00;;;;;;;;;;6200528;23;20089;-94
2023/04/20 12:03:18;;;;;;;10.68;5.25;;;;;;;;;;6195600;22;20013;-93
2023/04/20 12:05:45;;;;;;;29.10;13.65;;;;;;;;;;6199424;23;20028;-93
2023/04/20 12:08:11;;;;;;;20.08;9.82;;;;;;;;;;6172908;23;20008;-94
2023/04/20 12:10:45;;;;;;;9.18;5.18;;;;;;;;;;6194066;23;20017;-94
2023/04/20 12:13:17;;;;;;;7.47;4.63;;;;;;;;;;6198695;23;20012;-95
2023/04/20 12:15:45;;;;;;;11.77;5.30;;;;;;;;;;6228555;23;20020;-94
2023/04/20 12:18:12;;;;;;;8.25;5.20;;;;;;;;;;6222863;23;20027;-94
2023/04/20 12:20:44;;;;;;;12.85;5.32;;;;;;;;;;6198266;23;20016;-94
2023/04/20 12:23:10;;;;;;;12.68;6.10;;;;;;;;;;6194659;23;20005;-94
2023/04/20 12:25:36;;;;;;;10.85;6.00;;;;;;;;;;6190308;23;20557;-93
2023/04/20 12:28:05;;;;;;;12.57;5.38;;;;;;;;;;6193023;23;20008;-94
2023/04/20 12:30:37;;;;;;;9.40;4.95;;;;;;;;;;6196318;23;20016;-93
2023/04/20 12:33:03;;;;;;;11.63;5.55;;;;;;;;;;6225706;22;20012;-94
2023/04/20 12:35:30;;;;;;;11.32;5.88;;;;;;;;;;6254544;23;20035;-93
2023/04/20 12:37:56;;;;;;;11.73;5.80;;;;;;;;;;6228423;23;20008;-94
2023/04/20 12:40:22;;;;;;;9.13;5.20;;;;;;;;;;6228916;23;20027;-94
2023/04/20 12:42:52;;;;;;;10.45;5.22;;;;;;;;;;6229291;23;20016;-94
2023/04/20 12:45:18;;;;;;;12.20;5.72;;;;;;;;;;6252841;23;20008;-95
2023/04/20 12:47:45;;;;;;;8.68;4.80;;;;;;;;;;6224526;23;20008;-95
2023/04/20 12:50:11;;;;;;;9.60;5.43;;;;;;;;;;6226411;23;20008;-93
2023/04/20 12:52:38;;;;;;;63.28;29.23;;;;;;;;;;6220661;23;20131;-92
2023/04/20 12:55:05;;;;;;;33.90;15.25;;;;;;;;;;6221426;23;20032;-92
2023/04/20 12:57:31;;;;;;;26.95;11.82;;;;;;;;;;6218971;23;20434;-91
2023/04/20 12:59:58;;;;;;;12.98;7.07;;;;;;;;;;6221702;23;20497;-92
2023/04/20 13:02:25;;;;;;;36.60;17.15;;;;;;;;;;6247366;23;20438;-93
2023/04/20 13:05:07;;;;;;;9.60;6.22;;;;;;;;;;6222846;22;20051;-92
2023/04/20 13:07:36;;;;;;;8.10;4.95;;;;;;;;;;6220877;23;20028;-92
2023/04/20 13:10:02;;;;;;;9.88;5.00;;;;;;;;;;6198969;23;20012;-94
2023/04/20 13:12:30;;;;;;;7.47;3.83;;;;;;;;;;6219172;23;20017;-92
2023/04/20 13:14:59;;;;;;;10.93;4.45;;;;;;;;;;6217604;23;20031;-94
2023/04/20 13:17:25;;;;;;;11.57;5.40;;;;;;;;;;6217626;23;20072;-93
2023/04/20 13:19:51;;;;;;;10.15;5.15;;;;;;;;;;6219648;23;20000;-93
2023/04/20 13:22:17;;;;;;;7.55;5.13;;;;;;;;;;6194513;23;20008;-93
2023/04/20 13:24:44;;;;;;;9.25;4.80;;;;;;;;;;6194061;23;20004;-93
2023/04/20 13:27:10;;;;;;;10.07;5.55;;;;;;;;;;6219031;23;20008;-94
2023/04/20 13:29:46;;;;;;;8.23;4.75;;;;;;;;;;6217439;23;20293;-93
2023/04/20 13:32:12;;;;;;;9.05;5.57;;;;;;;;;;6195532;23;20091;-93
2023/04/20 13:34:41;;;;;;;8.18;4.80;;;;;;;;;;6196359;23;20012;-93
2023/04/20 13:37:08;;;;;;;8.43;5.22;;;;;;;;;;6193717;23;20018;-93
2023/04/20 13:39:34;;;;;;;7.45;5.03;;;;;;;;;;6191530;23;20010;-93
2023/04/20 13:42:01;;;;;;;7.95;5.25;;;;;;;;;;6193433;23;20038;-94
2023/04/20 13:44:27;;;;;;;9.45;5.97;;;;;;;;;;6190916;23;20043;-94
2023/04/20 13:46:54;;;;;;;7.63;5.30;;;;;;;;;;6194090;23;20020;-94
2023/04/20 13:49:21;;;;;;;8.40;5.05;;;;;;;;;;6221219;23;20507;-94
2023/04/20 13:51:48;;;;;;;9.90;5.70;;;;;;;;;;6221388;23;20015;-94
2023/04/20 13:54:14;;;;;;;9.40;5.15;;;;;;;;;;6196870;23;20019;-94
2023/04/20 13:56:44;;;;;;;7.32;5.20;;;;;;;;;;6222173;23;20039;-94
2023/04/20 13:59:14;;;;;;;8.57;5.43;;;;;;;;;;6196766;23;20009;-94
2023/04/20 14:01:53;;;;;;;10.32;5.57;;;;;;;;;;6195864;23;20024;-95
2023/04/20 14:04:21;;;;;;;8.35;5.82;;;;;;;;;;6239902;22;20335;-94
2023/04/20 14:06:47;;;;;;;7.97;5.13;;;;;;;;;;6249468;23;20015;-94
2023/04/20 14:09:13;;;;;;;10.65;6.05;;;;;;;;;;6219818;23;20502;-96
2023/04/20 14:11:40;;;;;;;7.43;5.32;;;;;;;;;;6220847;23;20008;-96
2023/04/20 14:14:09;;;;;;;10.75;5.15;;;;;;;;;;6221950;23;20000;-95
2023/04/20 14:16:48;;;;;;;16.23;5.75;;;;;;;;;;6246319;23;20008;-95
2023/04/20 14:19:15;;;;;;;8.73;5.57;;;;;;;;;;6222673;23;20098;-95
2023/04/20 14:21:45;;;;;;;10.18;5.28;;;;;;;;;;6249248;23;20095;-95
2023/04/20 14:24:11;;;;;;;8.35;5.57;;;;;;;;;;6248809;23;20001;-95
2023/04/20 14:26:37;;;;;;;12.18;5.40;;;;;;;;;;6221304;23;20016;-94
2023/04/20 14:29:22;;;;;;;8.27;5.53;;;;;;;;;;6222624;23;20039;-95
2023/04/20 14:31:58;;;;;;;12.63;5.18;;;;;;;;;;6250861;22;20016;-95
2023/04/20 14:34:25;;;;;;;;;;;;;;;;;;6249042;23;20009;-95
2023/04/20 14:37:10;;;;;;;14.73;5.50;;;;;;;;;;6246991;23;19908;-94
2023/04/20 14:39:36;;;;;;;13.23;6.35;;;;;;;;;;6226374;23;20012;-96
2023/04/20 14:42:02;;;;;;;10.15;6.25;;;;;;;;;;6244821;23;20063;-95
2023/04/20 14:44:29;;;;;;;10.40;6.28;;;;;;;;;;6245455;23;20050;-95
2023/04/20 14:47:05;;;;;;;13.32;6.15;;;;;;;;;;6222834;23;20008;-95
2023/04/20 14:49:30;;;;;;;;;;;;;;;;;;6245302;23;20011;-96
2023/04/20 14:51:57;;;;;;;12.20;6.45;;;;;;;;;;6248922;23;19903;-95
2023/04/20 14:54:23;;;;;;;11.57;6.68;;;;;;;;;;6246937;23;20084;-93
2023/04/20 14:56:52;;;;;;;13.52;6.32;;;;;;;;;;6224643;23;20020;-96